Time;durP1;ratioP1;P1;durP2;ratioP2;P2;SDS_P1;SDS_P2;PMS_P1;PMS_P2;Temp;Humidity;BMP_temperature;BMP_pressure;BME280_temperature;BME280_humidity;BME280_pressure;Samples;Min_cycle;Max_cycle;Signal;HPM_P1;HPM_P2
2021/12/04 00:00:34;;;;;;;29.58;17.83;;;5.10;99.90;;;;;;6195075;23;20033;-85
2021/12/04 00:03:00;;;;;;;29.60;17.65;;;5.10;99.90;;;;;;6144134;23;20020;-85
2021/12/04 00:05:26;;;;;;;29.58;17.83;;;5.10;99.90;;;;;;6144550;23;20064;-84
2021/12/04 00:07:52;;;;;;;28.73;17.52;;;5.10;99.90;;;;;;6119888;23;20355;-86
2021/12/04 00:10:21;;;;;;;30.02;18.00;;;5.10;99.90;;;;;;6143222;23;20209;-85
2021/12/04 00:12:47;;;;;;;33.88;18.50;;;5.10;99.90;;;;;;6144624;23;20020;-85
2021/12/04 00:15:13;;;;;;;31.50;18.58;;;5.90;99.90;;;;;;6143998;23;20275;-84
2021/12/04 00:17:40;;;;;;;33.72;19.17;;;5.10;99.90;;;;;;6142906;23;20021;-85
2021/12/04 00:20:08;;;;;;;34.28;19.00;;;5.10;99.90;;;;;;6168641;23;20005;-84
2021/12/04 00:22:34;;;;;;;32.15;18.13;;;5.10;99.90;;;;;;6144216;23;20044;-83
2021/12/04 00:25:00;;;;;;;36.50;20.30;;;5.10;99.90;;;;;;6143809;23;20258;-84
2021/12/04 00:27:26;;;;;;;37.67;19.40;;;5.00;99.90;;;;;;6119434;23;20065;-84
2021/12/04 00:29:52;;;;;;;36.67;18.95;;;5.00;99.90;;;;;;6116966;23;20009;-84
2021/12/04 00:32:35;;;;;;;38.58;21.25;;;5.10;99.90;;;;;;6193553;23;20032;-85
2021/12/04 00:35:19;;;;;;;40.38;21.92;;;5.30;99.90;;;;;;6102615;23;20283;-85
2021/12/04 00:51:34;;;;;;;39.45;20.58;;;5.00;99.90;;;;;;6192826;23;20025;-84
2021/12/04 00:54:00;;;;;;;40.53;20.70;;;4.20;99.90;;;;;;6168173;23;20171;-84
2021/12/04 00:56:26;;;;;;;40.78;20.90;;;5.00;99.90;;;;;;6168351;23;20009;-85
2021/12/04 00:58:52;;;;;;;40.97;21.10;;;6.40;99.90;;;;;;6143925;23;20105;-85
2021/12/04 01:01:19;;;;;;;41.10;20.88;;;5.00;99.90;;;;;;6142853;23;20009;-85
2021/12/04 01:03:46;;;;;;;40.45;20.98;;;;;;;;;;6119685;23;20009;-83
2021/12/04 01:06:15;;;;;;;40.72;20.77;;;5.00;99.90;;;;;;6168695;23;20013;-84
2021/12/04 01:08:44;;;;;;;42.85;22.15;;;5.90;99.90;;;;;;6168130;23;20016;-84
2021/12/04 01:11:09;;;;;;;40.20;20.45;;;5.00;99.90;;;;;;6138590;23;20016;-85
2021/12/04 01:13:35;;;;;;;40.15;21.33;;;4.90;99.90;;;;;;6138783;23;20010;-85
2021/12/04 01:16:01;;;;;;;43.50;22.23;;;5.00;99.90;;;;;;6162789;23;20010;-84
2021/12/04 01:18:28;;;;;;;44.85;22.17;;;5.00;99.90;;;;;;6163442;23;20032;-83
2021/12/04 01:20:54;;;;;;;41.58;21.40;;;5.00;99.90;;;;;;6162900;23;20040;-84
2021/12/04 01:23:20;;;;;;;42.78;21.17;;;;;;;;;;6138285;23;20009;-84
2021/12/04 01:25:48;;;;;;;39.20;19.63;;;5.00;99.90;;;;;;6162552;23;20266;-85
2021/12/04 01:28:14;;;;;;;41.60;20.38;;;4.90;99.90;;;;;;6162557;23;20026;-86
2021/12/04 01:30:40;;;;;;;45.15;21.40;;;5.00;99.90;;;;;;6163230;23;20009;-85
2021/12/04 01:33:06;;;;;;;42.28;20.17;;;5.00;99.90;;;;;;6138411;23;20006;-84
2021/12/04 01:35:32;;;;;;;46.00;21.67;;;6.10;99.90;;;;;;6162635;23;20255;-85
2021/12/04 01:37:58;;;;;;;45.08;21.17;;;5.00;99.90;;;;;;6138497;23;20060;-85
2021/12/04 01:40:27;;;;;;;45.75;20.95;;;5.00;99.90;;;;;;6164019;23;20013;-84
2021/12/04 01:42:53;;;;;;;44.20;21.05;;;5.00;99.90;;;;;;6162794;23;20006;-84
2021/12/04 01:45:19;;;;;;;46.75;21.77;;;5.00;99.90;;;;;;6138514;23;20020;-85
2021/12/04 01:47:45;;;;;;;47.00;21.45;;;6.30;99.90;;;;;;6138154;23;20013;-85
2021/12/04 01:50:11;;;;;;;46.30;21.63;;;4.90;99.90;;;;;;6162724;23;20040;-84
2021/12/04 01:52:37;;;;;;;45.22;21.40;;;5.00;99.90;;;;;;6164064;23;20009;-85
2021/12/04 01:55:04;;;;;;;41.80;20.27;;;5.00;99.90;;;;;;6138620;23;20165;-83
2021/12/04 01:57:31;;;;;;;43.80;21.13;;;5.00;99.90;;;;;;6162823;23;20014;-84
2021/12/04 01:59:58;;;;;;;45.88;21.10;;;6.50;99.90;;;;;;6163083;23;20005;-85
2021/12/04 02:02:23;;;;;;;44.80;21.67;;;6.80;99.90;;;;;;6187808;23;20248;-85
2021/12/04 02:04:50;;;;;;;44.47;19.80;;;5.30;99.90;;;;;;6138009;23;20013;-84
2021/12/04 02:07:19;;;;;;;42.72;20.05;;;5.00;99.90;;;;;;6162080;23;20120;-84
2021/12/04 02:09:45;;;;;;;40.13;20.00;;;5.00;99.90;;;;;;6162140;23;20025;-84
2021/12/04 02:12:14;;;;;;;39.95;19.35;;;;;;;;;;6163007;23;20065;-84
2021/12/04 02:14:41;;;;;;;44.40;19.58;;;5.00;99.90;;;;;;6137815;23;20095;-84
2021/12/04 02:17:10;;;;;;;50.33;20.70;;;5.00;99.90;;;;;;6137926;23;20172;-84
2021/12/04 02:19:37;;;;;;;43.50;20.13;;;5.00;99.90;;;;;;6137696;23;20256;-84
2021/12/04 02:22:11;;;;;;;44.28;20.15;;;5.00;99.90;;;;;;6162351;23;20168;-84
2021/12/04 02:24:39;;;;;;;51.33;21.63;;;5.00;99.90;;;;;;6162008;23;20005;-85
2021/12/04 02:27:13;;;;;;;44.00;18.98;;;5.00;99.90;;;;;;6138269;23;20212;-85
2021/12/04 02:29:47;;;;;;;52.97;21.55;;;5.00;99.90;;;;;;6164180;23;20009;-85
2021/12/04 02:32:13;;;;;;;44.53;19.35;;;5.00;99.90;;;;;;6137742;23;20273;-84
2021/12/04 02:34:40;;;;;;;51.15;20.52;;;5.00;99.90;;;;;;6138735;23;20061;-84
2021/12/04 02:37:08;;;;;;;42.00;19.55;;;4.80;99.90;;;;;;6137337;23;20010;-84
2021/12/04 02:39:43;;;;;;;44.17;19.70;;;;;;;;;;6139040;23;20056;-86
2021/12/04 02:42:30;;;;;;;43.80;20.05;;;5.00;99.90;;;;;;6138982;23;20048;-85
2021/12/04 02:45:03;;;;;;;47.40;21.58;;;4.90;99.90;;;;;;6139213;23;20013;-84
2021/12/04 02:47:32;;;;;;;44.60;19.77;;;;;;;;;;6138599;23;20017;-84
2021/12/04 02:49:58;;;;;;;42.85;18.98;;;5.00;99.90;;;;;;6137938;23;20012;-85
2021/12/04 02:52:26;;;;;;;48.17;19.65;;;4.80;99.90;;;;;;6138106;23;20048;-85
2021/12/04 02:54:55;;;;;;;48.08;20.77;;;4.90;99.90;;;;;;6137919;23;20053;-85
2021/12/04 02:57:24;;;;;;;44.80;18.95;;;4.90;99.90;;;;;;6137681;23;20176;-84
2021/12/04 02:59:53;;;;;;;45.35;18.35;;;;;;;;;;6137966;23;20005;-84
2021/12/04 03:02:23;;;;;;;44.50;19.95;;;4.90;99.90;;;;;;6162507;23;20232;-84
2021/12/04 03:04:54;;;;;;;46.70;19.08;;;4.90;99.90;;;;;;6137806;23;20020;-85
2021/12/04 03:07:23;;;;;;;44.45;19.30;;;4.60;99.90;;;;;;6137897;23;20013;-84
2021/12/04 03:09:52;;;;;;;44.00;18.90;;;4.90;99.90;;;;;;6137779;23;21182;-85
2021/12/04 03:12:23;;;;;;;45.75;19.27;;;4.90;99.90;;;;;;6162660;23;20195;-84
2021/12/04 03:14:55;;;;;;;36.30;17.63;;;4.90;99.90;;;;;;6136826;23;20056;-85
2021/12/04 03:17:23;;;;;;;43.42;18.25;;;4.90;99.90;;;;;;6137495;23;20010;-85
2021/12/04 03:19:56;;;;;;;43.40;18.08;;;;;;;;;;6137362;23;20029;-85
2021/12/04 03:22:23;;;;;;;39.92;17.38;;;;;;;;;;6137773;23;20061;-85
2021/12/04 03:24:52;;;;;;;43.45;19.25;;;4.90;99.90;;;;;;6137399;23;20040;-85
2021/12/04 03:27:20;;;;;;;40.58;17.00;;;4.90;99.90;;;;;;6161162;23;20005;-84
2021/12/04 03:30:05;;;;;;;38.15;17.55;;;4.90;99.90;;;;;;6137889;23;20086;-84
2021/12/04 03:41:07;;;;;;;37.65;16.00;;;3.70;99.90;;;;;;6187149;23;20164;-85
2021/12/04 03:43:33;;;;;;;39.30;16.30;;;4.90;99.90;;;;;;6137686;23;20009;-84
2021/12/04 03:46:04;;;;;;;33.67;15.82;;;6.00;99.90;;;;;;6137797;23;20021;-84
2021/12/04 03:51:07;;;;;;;30.88;15.15;;;4.90;99.90;;;;;;6187136;23;20085;-86
2021/12/04 03:53:33;;;;;;;38.15;16.08;;;4.90;99.90;;;;;;6137429;23;20057;-84
2021/12/04 03:55:59;;;;;;;37.00;15.88;;;5.00;99.90;;;;;;6186940;23;20017;-84
2021/12/04 03:58:25;;;;;;;33.45;15.82;;;4.90;99.90;;;;;;6161842;23;20060;-85
2021/12/04 04:00:51;;;;;;;29.55;14.90;;;5.80;99.90;;;;;;6162126;23;20021;-84
2021/12/04 04:03:17;;;;;;;31.30;15.43;;;4.90;99.90;;;;;;6138170;23;20009;-85
2021/12/04 04:05:48;;;;;;;31.73;15.55;;;4.90;99.90;;;;;;6166102;23;20032;-85
2021/12/04 04:08:14;;;;;;;33.30;14.90;;;2.90;99.90;;;;;;6139151;23;20260;-84
2021/12/04 04:10:42;;;;;;;33.33;15.43;;;4.90;99.90;;;;;;6139049;23;20232;-85
2021/12/04 04:13:12;;;;;;;30.20;14.75;;;4.80;99.90;;;;;;6163587;23;20244;-85
2021/12/04 04:15:38;;;;;;;32.72;15.02;;;4.90;99.90;;;;;;6164349;23;20875;-84
2021/12/04 04:18:05;;;;;;;31.23;14.30;;;;;;;;;;6139027;23;20024;-85
2021/12/04 04:20:31;;;;;;;34.00;15.23;;;4.90;99.90;;;;;;6163767;23;20009;-85
2021/12/04 04:22:57;;;;;;;33.53;14.75;;;5.00;99.90;;;;;;6139603;23;20033;-85
2021/12/04 04:25:23;;;;;;;32.47;14.60;;;4.80;99.90;;;;;;6188275;23;20020;-85
2021/12/04 04:27:51;;;;;;;34.55;14.73;;;4.90;99.90;;;;;;6139642;23;20009;-85
2021/12/04 04:30:19;;;;;;;34.20;15.23;;;4.90;99.90;;;;;;6138930;23;20009;-84
2021/12/04 04:32:47;;;;;;;37.95;15.70;;;4.80;99.90;;;;;;6139318;23;20014;-84
2021/12/04 04:35:15;;;;;;;28.48;14.43;;;4.80;99.90;;;;;;6163459;23;20053;-83
2021/12/04 05:12:55;;;;;;;34.60;14.00;;;4.80;99.90;;;;;;6188219;23;20009;-84
2021/12/04 05:15:53;;;;;;;30.50;13.95;;;4.80;99.90;;;;;;6163037;23;20018;-84
2021/12/04 05:20:54;;;;;;;32.08;14.55;;;4.80;99.90;;;;;;6188003;23;20009;-85
2021/12/04 05:23:23;;;;;;;31.88;13.70;;;4.80;99.90;;;;;;6163201;23;20017;-85
2021/12/04 05:25:50;;;;;;;35.00;13.93;;;4.80;99.90;;;;;;6163562;23;20011;-84
2021/12/04 05:28:17;;;;;;;34.00;13.98;;;4.80;99.90;;;;;;6138808;23;20028;-84
2021/12/04 05:30:43;;;;;;;33.78;14.73;;;4.80;99.90;;;;;;6138625;23;20062;-85
2021/12/04 05:33:16;;;;;;;29.90;14.00;;;4.80;99.90;;;;;;6163471;23;20040;-84
2021/12/04 05:35:47;;;;;;;34.92;15.40;;;4.80;99.90;;;;;;6138792;23;20048;-85
2021/12/04 05:38:18;;;;;;;38.42;15.00;;;6.50;99.90;;;;;;6138563;23;20009;-84
2021/12/04 05:40:48;;;;;;;32.95;14.18;;;4.80;99.90;;;;;;6137956;23;20017;-84
2021/12/04 05:43:15;;;;;;;33.53;14.52;;;4.80;99.90;;;;;;6138587;23;20016;-84
2021/12/04 05:45:49;;;;;;;31.38;13.95;;;4.80;99.90;;;;;;6136589;23;20010;-84
2021/12/04 05:55:53;;;;;;;32.58;14.15;;;4.70;99.90;;;;;;6187281;23;20044;-84
2021/12/04 05:58:28;;;;;;;33.92;13.85;;;5.60;99.90;;;;;;6138324;23;20021;-85
2021/12/04 06:00:56;;;;;;;30.98;13.18;;;4.70;99.90;;;;;;6162594;23;20065;-85
2021/12/04 06:03:25;;;;;;;32.55;13.05;;;4.70;99.90;;;;;;6137600;23;20006;-85
2021/12/04 06:05:51;;;;;;;29.25;13.52;;;4.70;99.90;;;;;;6162251;23;20015;-85
2021/12/04 06:08:19;;;;;;;30.60;13.13;;;4.00;99.90;;;;;;6137632;23;20017;-85
2021/12/04 06:10:52;;;;;;;28.55;13.40;;;4.70;99.90;;;;;;6137304;23;20252;-85
2021/12/04 06:13:18;;;;;;;28.30;12.55;;;4.70;99.90;;;;;;6138250;23;20006;-84
2021/12/04 06:15:44;;;;;;;30.17;13.55;;;4.60;99.90;;;;;;6161986;23;20017;-84
2021/12/04 06:18:11;;;;;;;30.00;13.05;;;4.70;99.90;;;;;;6164531;23;20056;-84
2021/12/04 06:23:24;;;;;;;29.35;12.90;;;4.70;99.90;;;;;;6186797;23;20197;-85
2021/12/04 06:25:50;;;;;;;28.17;13.20;;;4.60;99.90;;;;;;6136623;23;20074;-84
2021/12/04 06:28:17;;;;;;;27.13;13.05;;;4.70;99.90;;;;;;6161822;23;20001;-85
2021/12/04 06:30:44;;;;;;;28.08;13.07;;;4.70;99.90;;;;;;6135516;23;20009;-85
2021/12/04 06:33:12;;;;;;;26.38;13.23;;;6.00;99.90;;;;;;6137595;23;20052;-84
2021/12/04 06:35:41;;;;;;;30.67;13.23;;;4.60;99.90;;;;;;6136547;23;20009;-84
2021/12/04 06:38:15;;;;;;;29.42;12.23;;;4.70;99.90;;;;;;6185785;23;20309;-84
2021/12/04 06:40:41;;;;;;;30.05;13.32;;;5.80;99.90;;;;;;6162167;23;20072;-85
2021/12/04 06:43:07;;;;;;;25.33;12.27;;;5.50;99.90;;;;;;6162450;23;20279;-85
2021/12/04 06:45:37;;;;;;;25.73;12.02;;;4.70;99.90;;;;;;6138073;23;20233;-84
2021/12/04 06:48:08;;;;;;;32.80;13.20;;;4.70;99.90;;;;;;6162616;23;20252;-85
2021/12/04 06:53:07;;;;;;;30.05;12.88;;;4.70;99.90;;;;;;6186487;23;20176;-85
2021/12/04 06:55:39;;;;;;;30.80;13.10;;;4.70;99.90;;;;;;6163530;23;20016;-84
2021/12/04 06:58:07;;;;;;;32.53;12.90;;;4.60;99.90;;;;;;6137445;23;20040;-85
2021/12/04 07:00:34;;;;;;;29.73;12.45;;;4.50;99.90;;;;;;6136383;23;20093;-84
2021/12/04 07:03:00;;;;;;;32.97;13.23;;;4.60;99.90;;;;;;6161495;23;20201;-85
2021/12/04 07:05:26;;;;;;;33.70;12.88;;;4.60;99.90;;;;;;6137357;23;20029;-85
2021/12/04 07:07:52;;;;;;;30.75;12.50;;;4.60;99.90;;;;;;6161774;23;20232;-84
2021/12/04 07:10:18;;;;;;;34.30;12.93;;;4.70;99.90;;;;;;6137353;23;20009;-85
2021/12/04 07:12:46;;;;;;;37.67;13.10;;;4.70;99.90;;;;;;6160957;23;20113;-85
2021/12/04 07:15:13;;;;;;;35.83;14.32;;;4.60;99.90;;;;;;6160294;23;20051;-84
2021/12/04 07:17:39;;;;;;;31.10;12.90;;;6.00;99.90;;;;;;6159513;23;20024;-84
2021/12/04 07:20:07;;;;;;;38.50;13.95;;;4.70;99.90;;;;;;6162876;23;20036;-85
2021/12/04 07:22:33;;;;;;;29.98;12.25;;;4.70;99.90;;;;;;6136466;23;20010;-85
2021/12/04 07:25:00;;;;;;;33.65;13.75;;;4.70;99.90;;;;;;6138811;23;20262;-86
2021/12/04 07:27:28;;;;;;;36.42;12.63;;;5.70;99.90;;;;;;6162644;23;20013;-84
2021/12/04 07:29:55;;;;;;;40.28;13.82;;;4.60;99.90;;;;;;6136402;23;20299;-83
2021/12/04 07:32:25;;;;;;;31.88;13.18;;;4.70;99.90;;;;;;6163056;23;20037;-84
2021/12/04 07:34:51;;;;;;;37.92;13.70;;;4.70;99.90;;;;;;6138758;23;20020;-86
2021/12/04 07:37:17;;;;;;;35.45;13.45;;;4.70;99.90;;;;;;6164010;23;20184;-85
2021/12/04 07:39:43;;;;;;;32.42;13.63;;;4.70;99.90;;;;;;6140994;23;20026;-85
2021/12/04 07:42:08;;;;;;;35.97;14.00;;;4.70;99.90;;;;;;6165598;23;20067;-85
2021/12/04 07:44:38;;;;;;;39.67;13.90;;;;;;;;;;6140315;23;20117;-85
2021/12/04 07:47:04;;;;;;;32.20;12.68;;;4.60;99.90;;;;;;6164626;23;20109;-84
2021/12/04 07:49:29;;;;;;;32.72;13.32;;;4.60;99.90;;;;;;6165519;23;20009;-85
2021/12/04 07:51:55;;;;;;;35.75;14.02;;;4.70;99.90;;;;;;6139970;23;20010;-85
2021/12/04 07:54:21;;;;;;;36.95;13.50;;;4.60;99.90;;;;;;6163186;23;20009;-84
2021/12/04 07:56:50;;;;;;;30.27;11.95;;;4.60;99.90;;;;;;6165019;23;20129;-85
2021/12/04 07:59:16;;;;;;;31.40;12.75;;;4.60;99.90;;;;;;6188781;23;20153;-85
2021/12/04 08:01:42;;;;;;;33.95;13.30;;;4.60;99.90;;;;;;6164586;23;20013;-85
2021/12/04 08:04:10;;;;;;;29.73;12.23;;;3.00;99.90;;;;;;6164702;23;20068;-85
2021/12/04 08:06:39;;;;;;;29.35;12.52;;;5.20;99.90;;;;;;6139583;23;20005;-85
2021/12/04 08:09:04;;;;;;;34.33;13.27;;;4.70;99.90;;;;;;6187869;23;20025;-86
2021/12/04 08:11:31;;;;;;;32.60;13.45;;;4.70;99.90;;;;;;6143629;23;20029;-85
2021/12/04 08:13:57;;;;;;;34.95;13.68;;;4.70;99.90;;;;;;6144352;23;20016;-85
2021/12/04 08:16:25;;;;;;;30.15;12.77;;;6.30;99.90;;;;;;6095810;23;20231;-84
2021/12/04 08:18:53;;;;;;;29.25;12.77;;;4.70;99.90;;;;;;6167241;23;20009;-85
2021/12/04 08:21:20;;;;;;;33.55;13.30;;;4.60;99.90;;;;;;6119703;23;20015;-84
2021/12/04 08:23:46;;;;;;;28.98;12.45;;;4.70;99.90;;;;;;6168783;23;20083;-84
2021/12/04 08:26:12;;;;;;;31.23;13.23;;;4.70;99.90;;;;;;6143783;23;20015;-84
2021/12/04 08:28:39;;;;;;;33.42;13.27;;;4.60;99.90;;;;;;6167884;23;20025;-84
2021/12/04 08:31:05;;;;;;;44.05;13.40;;;4.70;99.90;;;;;;6142839;23;20005;-84
2021/12/04 08:33:31;;;;;;;31.95;12.90;;;4.70;99.90;;;;;;6193559;23;20015;-85
2021/12/04 08:35:57;;;;;;;28.65;12.35;;;4.70;99.90;;;;;;6193069;23;20009;-84
2021/12/04 08:38:23;;;;;;;29.50;12.98;;;4.70;99.90;;;;;;6168400;23;20009;-85
2021/12/04 08:40:49;;;;;;;26.70;11.90;;;5.40;99.90;;;;;;6118764;23;20095;-85
2021/12/04 08:43:15;;;;;;;27.95;12.50;;;4.70;99.90;;;;;;6193075;23;20020;-85
2021/12/04 08:45:42;;;;;;;25.75;12.27;;;4.70;99.90;;;;;;6143784;23;20012;-85
2021/12/04 08:48:09;;;;;;;25.20;11.70;;;4.70;99.90;;;;;;6143162;23;20167;-85
2021/12/04 08:50:37;;;;;;;24.75;11.60;;;4.70;99.90;;;;;;6142948;23;20009;-84
2021/12/04 08:53:09;;;;;;;27.55;11.77;;;4.70;99.90;;;;;;6118915;23;20105;-85
2021/12/04 08:55:38;;;;;;;28.67;12.20;;;4.70;99.90;;;;;;6166916;23;20024;-84
2021/12/04 08:58:07;;;;;;;26.63;11.57;;;5.40;99.90;;;;;;6168046;23;20013;-85
2021/12/04 09:00:39;;;;;;;22.50;10.85;;;4.70;99.90;;;;;;6142514;23;20135;-84
2021/12/04 09:03:07;;;;;;;22.38;10.55;;;6.40;99.90;;;;;;6140692;23;20016;-85
2021/12/04 09:05:35;;;;;;;23.77;10.75;;;4.80;99.90;;;;;;6139723;23;20009;-84
2021/12/04 09:08:03;;;;;;;24.23;10.38;;;4.80;99.90;;;;;;6167827;23;20036;-85
2021/12/04 09:10:29;;;;;;;21.73;9.75;;;4.80;99.90;;;;;;6166474;23;20009;-84
2021/12/04 09:12:58;;;;;;;21.45;9.93;;;4.80;99.90;;;;;;6117924;23;20017;-84
2021/12/04 09:15:31;;;;;;;21.35;9.05;;;4.80;99.90;;;;;;6142695;23;20361;-85
2021/12/04 09:17:57;;;;;;;;;;;5.20;99.90;;;;;;6168067;23;20013;-85
2021/12/04 09:20:23;;;;;;;20.83;8.93;;;4.80;99.90;;;;;;6194360;23;20177;-86
2021/12/04 09:22:49;;;;;;;18.27;8.45;;;4.80;99.90;;;;;;6143409;23;20009;-84
2021/12/04 09:25:22;;;;;;;19.15;9.25;;;4.90;99.90;;;;;;6142931;23;20013;-85
2021/12/04 09:30:39;;;;;;;17.17;8.40;;;4.90;99.90;;;;;;6193172;23;20040;-85
2021/12/04 10:11:56;;;;;;;18.90;9.77;;;5.20;99.90;;;;;;6167015;23;20239;-85
2021/12/04 10:22:18;;;;;;;18.33;10.13;;;5.30;99.90;;;;;;6192450;23;20205;-85
2021/12/04 10:33:17;;;;;;;17.52;10.00;;;5.40;99.90;;;;;;6165870;23;20009;-84
2021/12/04 10:35:46;;;;;;;16.92;9.90;;;6.70;99.90;;;;;;6142669;23;20009;-84
2021/12/04 10:38:21;;;;;;;17.70;9.75;;;6.00;99.90;;;;;;6142723;23;20031;-85
2021/12/04 10:40:49;;;;;;;15.93;9.40;;;5.40;99.90;;;;;;6142085;23;20032;-85
2021/12/04 10:43:26;;;;;;;16.30;9.40;;;5.40;99.90;;;;;;6167122;23;20020;-85
2021/12/04 10:45:56;;;;;;;17.58;9.40;;;5.40;99.90;;;;;;6167188;23;20056;-84
2021/12/04 10:48:27;;;;;;;15.10;8.82;;;5.40;99.90;;;;;;6143544;23;20040;-87
2021/12/04 10:51:18;;;;;;;17.17;9.45;;;5.40;99.90;;;;;;6142862;23;20013;-84
2021/12/04 10:53:54;;;;;;;15.32;8.52;;;5.40;99.90;;;;;;6193844;23;20298;-84
2021/12/04 10:56:34;;;;;;;16.42;8.60;;;5.40;99.90;;;;;;6120507;23;20065;-84
2021/12/04 11:02:08;;;;;;;15.32;8.70;;;5.50;99.90;;;;;;6191537;23;20016;-84
2021/12/04 11:04:41;;;;;;;16.45;8.80;;;5.50;99.90;;;;;;6167045;23;20036;-84
2021/12/04 11:42:58;;;;;;;18.10;9.18;;;;;;;;;;6163514;23;20010;-85
2021/12/04 11:45:11;;;;;;;16.08;7.78;;;5.50;99.90;;;;;;6139424;23;20014;-83
2021/12/04 11:47:39;;;;;;;15.75;8.40;;;5.50;99.90;;;;;;6135273;23;20118;-84
2021/12/04 11:50:16;;;;;;;18.20;8.85;;;5.60;99.90;;;;;;6162331;23;20010;-84
2021/12/04 11:52:51;;;;;;;17.05;8.60;;;5.60;99.90;;;;;;6138264;23;20064;-85
2021/12/04 11:55:20;;;;;;;19.38;9.38;;;5.60;99.90;;;;;;6187901;23;20009;-85
2021/12/04 11:57:49;;;;;;;18.05;9.75;;;5.60;99.90;;;;;;6139868;23;20101;-83
2021/12/04 12:00:29;;;;;;;18.73;10.05;;;5.60;99.90;;;;;;6138237;23;20064;-86
2021/12/04 12:03:13;;;;;;;17.95;9.68;;;5.60;99.90;;;;;;6138502;23;20010;-84
2021/12/04 12:05:46;;;;;;;19.65;10.85;;;5.60;99.90;;;;;;6137206;23;20073;-84
2021/12/04 12:08:25;;;;;;;20.73;10.45;;;5.60;99.90;;;;;;6137887;23;20005;-85
2021/12/04 12:10:54;;;;;;;19.77;10.35;;;6.30;99.90;;;;;;6136523;23;20018;-84
2021/12/04 12:13:28;;;;;;;19.67;10.63;;;5.60;99.90;;;;;;6137478;23;20020;-84
2021/12/04 12:16:02;;;;;;;;;;;5.60;99.90;;;;;;6162092;23;20057;-85
2021/12/04 12:18:27;;;;;;;21.73;11.10;;;5.50;99.90;;;;;;6163546;23;19939;-84
2021/12/04 12:20:58;;;;;;;21.55;11.30;;;5.50;99.90;;;;;;6137449;23;20025;-83
2021/12/04 12:23:31;;;;;;;25.23;12.40;;;7.00;99.90;;;;;;6137786;23;20064;-84
2021/12/04 12:31:51;;;;;;;21.50;11.23;;;5.50;99.90;;;;;;6188704;23;20419;-83
2021/12/04 12:37:24;;;;;;;20.60;10.90;;;5.60;99.90;;;;;;6188555;23;20028;-85
2021/12/04 12:39:58;;;;;;;20.17;11.05;;;5.60;99.90;;;;;;6139040;23;20014;-84
2021/12/04 12:42:37;;;;;;;21.80;11.35;;;5.60;99.90;;;;;;6139086;23;20061;-84
2021/12/04 12:45:24;;;;;;;19.85;10.73;;;5.70;99.90;;;;;;6163139;23;20017;-84
2021/12/04 12:47:58;;;;;;;20.48;11.27;;;5.70;99.90;;;;;;6163999;23;20029;-85
2021/12/04 12:50:38;;;;;;;24.88;12.43;;;5.70;99.90;;;;;;6163740;23;20022;-85
2021/12/04 12:53:26;;;;;;;22.70;12.20;;;5.70;99.90;;;;;;6164997;23;20076;-84
2021/12/04 12:56:03;;;;;;;26.45;12.43;;;5.70;99.90;;;;;;6161762;23;20005;-85
2021/12/04 13:13:43;;;;;;;23.42;12.70;;;5.50;99.90;;;;;;6192881;23;20055;-84
2021/12/04 13:16:28;;;;;;;26.05;13.75;;;5.50;99.90;;;;;;6143489;23;20032;-85
2021/12/04 13:18:58;;;;;;;26.45;14.25;;;5.50;99.90;;;;;;6194713;23;20024;-85
2021/12/04 13:21:26;;;;;;;25.67;13.45;;;5.50;99.90;;;;;;6143224;23;20257;-85
2021/12/04 13:23:56;;;;;;;28.25;14.70;;;6.20;99.90;;;;;;6119529;23;20035;-84
2021/12/04 13:26:31;;;;;;;27.65;15.25;;;;;;;;;;6143053;23;20009;-85
2021/12/04 13:28:59;;;;;;;28.13;14.80;;;5.50;99.90;;;;;;6168152;23;20025;-84
2021/12/04 13:31:26;;;;;;;23.88;13.85;;;5.50;99.90;;;;;;6119405;23;20005;-84
2021/12/04 13:33:56;;;;;;;27.40;15.43;;;5.50;99.90;;;;;;6167389;23;20025;-84
2021/12/04 13:36:29;;;;;;;26.58;15.38;;;5.50;99.90;;;;;;6117881;23;20005;-83
2021/12/04 13:39:08;;;;;;;29.85;15.52;;;5.50;99.90;;;;;;6118320;23;20013;-84
2021/12/04 13:41:39;;;;;;;26.13;15.13;;;5.40;99.90;;;;;;6193814;23;20012;-85
2021/12/04 13:44:06;;;;;;;28.05;14.82;;;5.50;99.90;;;;;;6142927;23;20028;-84
2021/12/04 13:46:51;;;;;;;29.08;15.73;;;5.50;99.90;;;;;;6142823;23;20012;-84
2021/12/04 13:49:26;;;;;;;29.88;17.27;;;6.70;99.90;;;;;;6166960;23;20009;-83
2021/12/04 13:51:57;;;;;;;31.75;16.88;;;5.50;99.90;;;;;;6141463;23;20596;-83
2021/12/04 13:54:34;;;;;;;34.13;18.73;;;5.50;99.90;;;;;;6144921;23;20410;-84
2021/12/04 13:57:01;;;;;;;36.67;18.48;;;6.50;99.90;;;;;;6143182;23;20032;-84
2021/12/04 13:59:28;;;;;;;33.88;18.02;;;5.50;99.90;;;;;;6142528;23;20036;-85
2021/12/04 14:01:59;;;;;;;34.55;17.38;;;5.50;99.90;;;;;;6143174;23;20023;-85
2021/12/04 14:04:25;;;;;;;35.17;17.45;;;5.50;99.90;;;;;;6167788;23;20021;-84
2021/12/04 14:07:16;;;;;;;39.00;19.00;;;6.30;99.90;;;;;;6142700;23;20044;-85
2021/12/04 14:09:42;;;;;;;33.53;17.48;;;5.50;99.90;;;;;;6166930;23;20013;-84
2021/12/04 14:12:08;;;;;;;35.03;17.55;;;5.50;99.90;;;;;;6162107;23;20068;-85
2021/12/04 14:14:35;;;;;;;37.42;18.60;;;5.50;99.90;;;;;;6137665;23;20005;-84
2021/12/04 14:17:19;;;;;;;36.00;18.30;;;5.50;99.90;;;;;;6161626;23;20016;-84
2021/12/04 14:19:54;;;;;;;35.88;17.33;;;5.70;99.90;;;;;;6138173;23;20017;-83
2021/12/04 14:22:27;;;;;;;39.40;18.95;;;5.50;99.90;;;;;;6186928;23;20276;-84
2021/12/04 14:25:01;;;;;;;40.70;19.20;;;5.40;99.90;;;;;;6162651;23;20257;-84
2021/12/04 14:27:34;;;;;;;40.65;17.98;;;5.50;99.90;;;;;;6137400;23;20036;-84
2021/12/04 14:30:01;;;;;;;;;;;5.40;99.90;;;;;;6163154;23;20056;-83
2021/12/04 14:32:32;;;;;;;34.38;16.77;;;6.20;99.90;;;;;;6138106;23;20055;-84
2021/12/04 14:35:10;;;;;;;39.05;18.30;;;5.50;99.90;;;;;;6162759;23;20040;-84
2021/12/04 14:37:42;;;;;;;36.63;17.83;;;5.40;99.90;;;;;;6137584;23;20009;-84
2021/12/04 14:40:14;;;;;;;36.60;16.83;;;7.20;99.90;;;;;;6137997;23;20025;-84
2021/12/04 14:42:44;;;;;;;37.08;17.52;;;5.40;99.90;;;;;;6138382;23;20236;-84
2021/12/04 14:45:20;;;;;;;36.58;18.33;;;5.50;99.90;;;;;;6186801;23;20357;-84
2021/12/04 14:47:54;;;;;;;37.75;18.45;;;5.50;99.90;;;;;;6163564;23;20029;-84
2021/12/04 14:50:24;;;;;;;41.97;18.25;;;5.50;99.90;;;;;;6162457;23;20013;-84
2021/12/04 14:52:58;;;;;;;38.95;18.38;;;5.40;99.90;;;;;;6163022;23;20033;-84
2021/12/04 14:55:26;;;;;;;40.13;18.08;;;;;;;;;;6162020;23;20041;-84
2021/12/04 14:57:53;;;;;;;36.33;17.80;;;5.50;99.90;;;;;;6161860;23;20076;-84
2021/12/04 15:00:27;;;;;;;33.45;16.83;;;5.40;99.90;;;;;;6162093;23;20021;-85
2021/12/04 15:02:58;;;;;;;36.75;17.25;;;5.40;99.90;;;;;;6162638;23;20073;-84
2021/12/04 15:05:45;;;;;;;30.90;16.25;;;5.40;99.90;;;;;;6162153;23;20228;-84
2021/12/04 15:08:26;;;;;;;34.05;15.90;;;5.50;99.90;;;;;;6161977;23;20063;-83
2021/12/04 15:11:14;;;;;;;35.83;15.93;;;5.50;99.90;;;;;;6136882;23;20033;-84
2021/12/04 15:13:50;;;;;;;35.97;16.50;;;6.30;99.90;;;;;;6162566;23;20031;-84
2021/12/04 15:16:19;;;;;;;36.78;16.70;;;5.40;99.90;;;;;;6137524;23;20269;-83
2021/12/04 15:18:47;;;;;;;36.53;16.85;;;5.40;99.90;;;;;;6162097;23;20033;-84
2021/12/04 15:21:17;;;;;;;37.38;17.55;;;5.40;99.90;;;;;;6137070;23;20041;-85
2021/12/04 15:24:06;;;;;;;36.92;17.63;;;5.40;99.90;;;;;;6137192;23;20011;-84
2021/12/04 15:26:38;;;;;;;37.13;17.58;;;7.10;99.90;;;;;;6162168;23;20111;-84
2021/12/04 15:29:07;;;;;;;37.17;17.08;;;;;;;;;;6187017;23;20043;-85
2021/12/04 15:31:40;;;;;;;41.05;18.40;;;5.40;99.90;;;;;;6162095;23;20164;-84
2021/12/04 15:34:05;;;;;;;39.45;19.15;;;5.40;99.90;;;;;;6162363;23;20061;-84
2021/12/04 15:36:36;;;;;;;38.35;18.33;;;5.00;99.90;;;;;;6137814;23;20020;-84
2021/12/04 15:39:09;;;;;;;40.35;18.20;;;5.40;99.90;;;;;;6136892;23;20013;-84
2021/12/04 15:47:33;;;;;;;45.20;19.70;;;5.50;99.90;;;;;;6186886;23;20204;-85
2021/12/04 15:53:13;;;;;;;47.67;19.77;;;5.40;99.90;;;;;;6187208;23;20017;-85
2021/12/04 15:55:45;;;;;;;44.15;19.45;;;4.70;99.90;;;;;;6137098;23;20259;-84
2021/12/04 15:58:18;;;;;;;48.40;20.23;;;5.40;99.90;;;;;;6137994;23;20020;-84
2021/12/04 16:00:49;;;;;;;44.88;20.25;;;5.40;99.90;;;;;;6138731;23;20029;-85
2021/12/04 16:03:18;;;;;;;48.20;21.17;;;5.40;99.90;;;;;;6138799;23;20009;-85
2021/12/04 16:06:00;;;;;;;41.75;19.55;;;5.30;99.90;;;;;;6136703;23;20314;-84
2021/12/04 16:08:43;;;;;;;51.85;20.65;;;5.30;99.90;;;;;;6137342;23;20025;-85
2021/12/04 16:11:24;;;;;;;44.70;19.63;;;;;;;;;;6139508;23;20058;-83
2021/12/04 16:14:23;;;;;;;46.65;21.02;;;5.30;99.90;;;;;;6138310;23;20045;-84
2021/12/04 16:16:55;;;;;;;48.30;20.08;;;4.20;99.90;;;;;;6133973;23;20160;-84
2021/12/04 16:19:51;;;;;;;38.90;18.95;;;5.30;99.90;;;;;;6137705;23;20029;-83
2021/12/04 16:22:36;;;;;;;41.63;19.67;;;5.30;99.90;;;;;;6151494;23;20294;-84